sensor_id;sensor_type;location;lat;lon;timestamp;P1;durP1;ratioP1;P2;durP2;ratioP2
21601;SDS011;10963;50.934;4.668;2022-09-09T00:02:21;7.37;;;2.07;;
21601;SDS011;10963;50.934;4.668;2022-09-09T00:05:04;5.00;;;1.80;;
21601;SDS011;10963;50.934;4.668;2022-09-09T00:07:59;8.97;;;2.00;;
21601;SDS011;10963;50.934;4.668;2022-09-09T00:10:29;2.90;;;1.57;;
21601;SDS011;10963;50.934;4.668;2022-09-09T00:15:43;6.63;;;2.20;;
21601;SDS011;10963;50.934;4.668;2022-09-09T00:18:24;4.10;;;1.80;;
21601;SDS011;10963;50.934;4.668;2022-09-09T00:21:06;4.53;;;2.20;;
21601;SDS011;10963;50.934;4.668;2022-09-09T00:26:19;4.37;;;1.80;;
21601;SDS011;10963;50.934;4.668;2022-09-09T00:28:59;8.67;;;2.27;;
21601;SDS011;10963;50.934;4.668;2022-09-09T00:31:30;8.53;;;2.10;;
21601;SDS011;10963;50.934;4.668;2022-09-09T00:34:11;8.03;;;2.23;;
21601;SDS011;10963;50.934;4.668;2022-09-09T00:36:39;5.43;;;1.87;;
21601;SDS011;10963;50.934;4.668;2022-09-09T00:39:15;4.63;;;1.73;;
21601;SDS011;10963;50.934;4.668;2022-09-09T00:44:38;9.77;;;2.43;;
21601;SDS011;10963;50.934;4.668;2022-09-09T00:47:09;5.63;;;2.13;;
21601;SDS011;10963;50.934;4.668;2022-09-09T00:50:05;4.47;;;1.67;;
21601;SDS011;10963;50.934;4.668;2022-09-09T00:58:08;5.97;;;1.90;;
21601;SDS011;10963;50.934;4.668;2022-09-09T01:03:34;7.10;;;2.17;;
21601;SDS011;10963;50.934;4.668;2022-09-09T01:08:54;8.07;;;2.10;;
21601;SDS011;10963;50.934;4.668;2022-09-09T01:16:56;10.40;;;2.30;;
21601;SDS011;10963;50.934;4.668;2022-09-09T01:19:37;5.30;;;1.70;;
21601;SDS011;10963;50.934;4.668;2022-09-09T01:22:10;4.03;;;1.70;;
21601;SDS011;10963;50.934;4.668;2022-09-09T01:27:43;3.87;;;2.07;;
21601;SDS011;10963;50.934;4.668;2022-09-09T01:30:11;6.17;;;2.43;;
21601;SDS011;10963;50.934;4.668;2022-09-09T01:37:57;7.47;;;2.37;;
21601;SDS011;10963;50.934;4.668;2022-09-09T01:40:23;9.23;;;2.10;;
21601;SDS011;10963;50.934;4.668;2022-09-09T01:42:52;4.50;;;2.10;;
21601;SDS011;10963;50.934;4.668;2022-09-09T01:45:23;11.30;;;2.30;;
21601;SDS011;10963;50.934;4.668;2022-09-09T01:47:50;8.00;;;2.20;;
21601;SDS011;10963;50.934;4.668;2022-09-09T01:50:20;9.70;;;2.60;;
21601;SDS011;10963;50.934;4.668;2022-09-09T01:52:46;10.33;;;2.67;;
21601;SDS011;10963;50.934;4.668;2022-09-09T01:55:17;7.53;;;2.60;;
21601;SDS011;10963;50.934;4.668;2022-09-09T02:01:35;9.50;;;2.47;;
21601;SDS011;10963;50.934;4.668;2022-09-09T02:03:57;8.77;;;2.37;;
21601;SDS011;10963;50.934;4.668;2022-09-09T02:06:38;7.47;;;2.57;;
21601;SDS011;10963;50.934;4.668;2022-09-09T02:09:08;8.53;;;2.33;;
21601;SDS011;10963;50.934;4.668;2022-09-09T02:11:38;3.40;;;2.00;;
21601;SDS011;10963;50.934;4.668;2022-09-09T02:19:25;11.23;;;2.50;;
21601;SDS011;10963;50.934;4.668;2022-09-09T02:21:57;5.50;;;2.20;;
21601;SDS011;10963;50.934;4.668;2022-09-09T02:24:26;4.57;;;2.13;;
21601;SDS011;10963;50.934;4.668;2022-09-09T02:26:54;5.57;;;2.13;;
21601;SDS011;10963;50.934;4.668;2022-09-09T02:29:26;7.33;;;2.30;;
21601;SDS011;10963;50.934;4.668;2022-09-09T02:31:58;4.70;;;2.27;;
21601;SDS011;10963;50.934;4.668;2022-09-09T02:34:29;8.53;;;1.97;;
21601;SDS011;10963;50.934;4.668;2022-09-09T02:37:02;6.83;;;2.37;;
21601;SDS011;10963;50.934;4.668;2022-09-09T02:39:31;9.07;;;2.20;;
21601;SDS011;10963;50.934;4.668;2022-09-09T02:41:59;5.50;;;2.03;;
21601;SDS011;10963;50.934;4.668;2022-09-09T02:44:31;13.20;;;2.17;;
21601;SDS011;10963;50.934;4.668;2022-09-09T02:55:04;8.33;;;2.07;;
21601;SDS011;10963;50.934;4.668;2022-09-09T02:57:36;10.87;;;2.30;;
21601;SDS011;10963;50.934;4.668;2022-09-09T03:00:06;9.00;;;2.30;;
21601;SDS011;10963;50.934;4.668;2022-09-09T03:02:32;8.93;;;2.50;;
21601;SDS011;10963;50.934;4.668;2022-09-09T03:04:58;11.00;;;2.40;;
21601;SDS011;10963;50.934;4.668;2022-09-09T03:07:24;7.77;;;2.50;;
21601;SDS011;10963;50.934;4.668;2022-09-09T03:09:49;7.87;;;2.00;;
21601;SDS011;10963;50.934;4.668;2022-09-09T03:12:15;10.87;;;2.43;;
21601;SDS011;10963;50.934;4.668;2022-09-09T03:14:41;8.67;;;2.57;;
21601;SDS011;10963;50.934;4.668;2022-09-09T03:17:09;6.80;;;1.90;;
21601;SDS011;10963;50.934;4.668;2022-09-09T03:19:37;9.07;;;2.17;;
21601;SDS011;10963;50.934;4.668;2022-09-09T03:22:08;6.57;;;2.13;;
21601;SDS011;10963;50.934;4.668;2022-09-09T03:24:38;7.30;;;2.17;;
21601;SDS011;10963;50.934;4.668;2022-09-09T03:27:08;7.30;;;2.23;;
21601;SDS011;10963;50.934;4.668;2022-09-09T03:29:36;11.23;;;2.57;;
21601;SDS011;10963;50.934;4.668;2022-09-09T03:32:02;7.73;;;2.23;;
21601;SDS011;10963;50.934;4.668;2022-09-09T03:34:28;4.40;;;1.77;;
21601;SDS011;10963;50.934;4.668;2022-09-09T03:36:56;8.90;;;2.23;;
21601;SDS011;10963;50.934;4.668;2022-09-09T03:39:22;7.23;;;1.87;;
21601;SDS011;10963;50.934;4.668;2022-09-09T03:41:50;8.57;;;2.10;;
21601;SDS011;10963;50.934;4.668;2022-09-09T03:44:18;6.33;;;2.40;;
21601;SDS011;10963;50.934;4.668;2022-09-09T03:46:46;7.93;;;2.17;;
21601;SDS011;10963;50.934;4.668;2022-09-09T03:49:12;5.77;;;2.43;;
21601;SDS011;10963;50.934;4.668;2022-09-09T03:51:44;9.20;;;2.57;;
21601;SDS011;10963;50.934;4.668;2022-09-09T03:54:12;9.50;;;2.50;;
21601;SDS011;10963;50.934;4.668;2022-09-09T03:56:40;7.30;;;2.23;;
21601;SDS011;10963;50.934;4.668;2022-09-09T03:59:06;9.70;;;2.40;;
21601;SDS011;10963;50.934;4.668;2022-09-09T04:01:37;7.70;;;2.47;;
21601;SDS011;10963;50.934;4.668;2022-09-09T04:04:03;9.17;;;2.30;;
21601;SDS011;10963;50.934;4.668;2022-09-09T04:06:32;9.50;;;2.53;;
21601;SDS011;10963;50.934;4.668;2022-09-09T04:08:58;12.67;;;2.97;;
21601;SDS011;10963;50.934;4.668;2022-09-09T04:11:27;10.93;;;2.30;;
21601;SDS011;10963;50.934;4.668;2022-09-09T04:13:55;7.73;;;2.77;;
21601;SDS011;10963;50.934;4.668;2022-09-09T04:16:23;7.57;;;2.10;;
21601;SDS011;10963;50.934;4.668;2022-09-09T04:18:49;7.20;;;2.40;;
21601;SDS011;10963;50.934;4.668;2022-09-09T04:21:15;7.03;;;2.60;;
21601;SDS011;10963;50.934;4.668;2022-09-09T04:23:42;12.13;;;2.10;;
21601;SDS011;10963;50.934;4.668;2022-09-09T04:26:08;8.63;;;2.60;;
21601;SDS011;10963;50.934;4.668;2022-09-09T04:28:36;12.83;;;3.07;;
21601;SDS011;10963;50.934;4.668;2022-09-09T04:31:10;6.23;;;2.43;;
21601;SDS011;10963;50.934;4.668;2022-09-09T04:33:43;4.30;;;2.63;;
21601;SDS011;10963;50.934;4.668;2022-09-09T04:36:09;9.13;;;2.87;;
21601;SDS011;10963;50.934;4.668;2022-09-09T04:38:38;7.80;;;2.60;;
21601;SDS011;10963;50.934;4.668;2022-09-09T04:41:06;10.57;;;2.33;;
21601;SDS011;10963;50.934;4.668;2022-09-09T04:43:32;11.00;;;2.17;;
21601;SDS011;10963;50.934;4.668;2022-09-09T04:46:01;6.63;;;2.83;;
21601;SDS011;10963;50.934;4.668;2022-09-09T04:48:30;8.13;;;2.70;;
21601;SDS011;10963;50.934;4.668;2022-09-09T04:50:57;11.43;;;2.50;;
21601;SDS011;10963;50.934;4.668;2022-09-09T04:53:29;6.70;;;2.47;;
21601;SDS011;10963;50.934;4.668;2022-09-09T04:56:05;9.70;;;2.70;;
21601;SDS011;10963;50.934;4.668;2022-09-09T04:58:38;11.17;;;2.67;;
21601;SDS011;10963;50.934;4.668;2022-09-09T05:01:09;5.90;;;2.33;;
21601;SDS011;10963;50.934;4.668;2022-09-09T05:03:43;16.17;;;3.13;;
21601;SDS011;10963;50.934;4.668;2022-09-09T05:06:12;9.70;;;2.40;;
21601;SDS011;10963;50.934;4.668;2022-09-09T05:08:42;10.00;;;2.90;;
21601;SDS011;10963;50.934;4.668;2022-09-09T05:11:19;8.67;;;2.87;;
21601;SDS011;10963;50.934;4.668;2022-09-09T05:13:51;12.03;;;3.50;;
21601;SDS011;10963;50.934;4.668;2022-09-09T05:16:17;8.70;;;2.50;;
21601;SDS011;10963;50.934;4.668;2022-09-09T05:18:44;6.50;;;2.93;;
21601;SDS011;10963;50.934;4.668;2022-09-09T05:21:15;7.37;;;2.93;;
21601;SDS011;10963;50.934;4.668;2022-09-09T05:23:41;10.60;;;3.67;;
21601;SDS011;10963;50.934;4.668;2022-09-09T05:26:09;17.13;;;3.53;;
21601;SDS011;10963;50.934;4.668;2022-09-09T05:28:41;11.57;;;2.80;;
21601;SDS011;10963;50.934;4.668;2022-09-09T05:31:09;9.23;;;2.83;;
21601;SDS011;10963;50.934;4.668;2022-09-09T05:33:39;13.67;;;2.57;;
21601;SDS011;10963;50.934;4.668;2022-09-09T05:36:11;10.77;;;3.50;;
21601;SDS011;10963;50.934;4.668;2022-09-09T05:38:43;7.13;;;2.77;;
21601;SDS011;10963;50.934;4.668;2022-09-09T05:41:09;12.20;;;3.57;;
21601;SDS011;10963;50.934;4.668;2022-09-09T05:43:36;9.40;;;3.10;;
21601;SDS011;10963;50.934;4.668;2022-09-09T05:46:07;10.00;;;3.20;;
21601;SDS011;10963;50.934;4.668;2022-09-09T05:48:35;11.37;;;3.40;;
21601;SDS011;10963;50.934;4.668;2022-09-09T05:51:10;7.57;;;3.00;;
21601;SDS011;10963;50.934;4.668;2022-09-09T05:53:40;12.07;;;2.73;;
21601;SDS011;10963;50.934;4.668;2022-09-09T05:56:09;7.23;;;2.40;;
21601;SDS011;10963;50.934;4.668;2022-09-09T05:58:41;10.93;;;3.07;;
21601;SDS011;10963;50.934;4.668;2022-09-09T06:01:14;6.27;;;2.50;;
21601;SDS011;10963;50.934;4.668;2022-09-09T06:03:49;8.47;;;2.33;;
21601;SDS011;10963;50.934;4.668;2022-09-09T06:06:24;11.27;;;3.00;;
21601;SDS011;10963;50.934;4.668;2022-09-09T06:08:55;9.80;;;2.57;;
21601;SDS011;10963;50.934;4.668;2022-09-09T06:11:25;14.53;;;3.03;;
21601;SDS011;10963;50.934;4.668;2022-09-09T06:13:59;10.23;;;3.00;;
21601;SDS011;10963;50.934;4.668;2022-09-09T06:16:25;8.47;;;3.33;;
21601;SDS011;10963;50.934;4.668;2022-09-09T06:18:55;7.17;;;2.17;;
21601;SDS011;10963;50.934;4.668;2022-09-09T06:23:55;7.20;;;2.47;;
21601;SDS011;10963;50.934;4.668;2022-09-09T06:26:25;13.77;;;2.23;;
21601;SDS011;10963;50.934;4.668;2022-09-09T06:28:58;9.63;;;2.83;;
21601;SDS011;10963;50.934;4.668;2022-09-09T06:31:29;7.27;;;2.70;;
21601;SDS011;10963;50.934;4.668;2022-09-09T06:33:55;12.93;;;2.87;;
21601;SDS011;10963;50.934;4.668;2022-09-09T06:36:25;9.87;;;2.40;;
21601;SDS011;10963;50.934;4.668;2022-09-09T06:38:52;10.60;;;3.20;;
21601;SDS011;10963;50.934;4.668;2022-09-09T06:41:19;12.00;;;3.70;;
21601;SDS011;10963;50.934;4.668;2022-09-09T06:43:46;10.43;;;2.23;;
21601;SDS011;10963;50.934;4.668;2022-09-09T06:46:13;12.17;;;2.50;;
21601;SDS011;10963;50.934;4.668;2022-09-09T06:48:40;7.50;;;2.23;;
21601;SDS011;10963;50.934;4.668;2022-09-09T06:51:15;10.50;;;2.63;;
21601;SDS011;10963;50.934;4.668;2022-09-09T06:53:46;10.40;;;2.50;;
21601;SDS011;10963;50.934;4.668;2022-09-09T06:58:41;7.97;;;2.10;;
21601;SDS011;10963;50.934;4.668;2022-09-09T07:01:10;12.00;;;2.70;;
21601;SDS011;10963;50.934;4.668;2022-09-09T07:03:40;7.53;;;2.43;;
21601;SDS011;10963;50.934;4.668;2022-09-09T07:06:08;11.40;;;2.53;;
21601;SDS011;10963;50.934;4.668;2022-09-09T07:08:39;8.53;;;2.30;;
21601;SDS011;10963;50.934;4.668;2022-09-09T07:11:07;7.33;;;2.40;;
21601;SDS011;10963;50.934;4.668;2022-09-09T07:13:36;11.30;;;2.30;;
21601;SDS011;10963;50.934;4.668;2022-09-09T07:16:08;6.73;;;1.83;;
21601;SDS011;10963;50.934;4.668;2022-09-09T07:18:35;11.00;;;2.00;;
21601;SDS011;10963;50.934;4.668;2022-09-09T07:21:02;11.37;;;2.40;;
21601;SDS011;10963;50.934;4.668;2022-09-09T07:23:28;6.03;;;2.20;;
21601;SDS011;10963;50.934;4.668;2022-09-09T07:25:55;8.27;;;2.10;;
21601;SDS011;10963;50.934;4.668;2022-09-09T07:28:22;6.43;;;2.70;;
21601;SDS011;10963;50.934;4.668;2022-09-09T07:30:56;7.23;;;2.30;;
21601;SDS011;10963;50.934;4.668;2022-09-09T07:33:24;9.50;;;2.50;;
21601;SDS011;10963;50.934;4.668;2022-09-09T07:36:01;8.53;;;2.13;;
21601;SDS011;10963;50.934;4.668;2022-09-09T07:38:51;6.47;;;2.50;;
21601;SDS011;10963;50.934;4.668;2022-09-09T07:41:25;13.70;;;2.57;;
21601;SDS011;10963;50.934;4.668;2022-09-09T07:44:07;6.90;;;2.17;;
21601;SDS011;10963;50.934;4.668;2022-09-09T07:46:41;6.90;;;1.80;;
21601;SDS011;10963;50.934;4.668;2022-09-09T07:49:10;9.07;;;2.17;;
21601;SDS011;10963;50.934;4.668;2022-09-09T07:51:40;10.43;;;3.30;;
21601;SDS011;10963;50.934;4.668;2022-09-09T07:54:09;9.00;;;3.07;;
21601;SDS011;10963;50.934;4.668;2022-09-09T07:56:36;18.80;;;2.70;;
21601;SDS011;10963;50.934;4.668;2022-09-09T07:59:06;11.30;;;2.90;;
21601;SDS011;10963;50.934;4.668;2022-09-09T08:01:36;5.90;;;2.03;;
21601;SDS011;10963;50.934;4.668;2022-09-09T08:04:05;9.77;;;2.23;;
21601;SDS011;10963;50.934;4.668;2022-09-09T08:06:35;10.77;;;2.30;;
21601;SDS011;10963;50.934;4.668;2022-09-09T08:09:05;8.77;;;2.50;;
21601;SDS011;10963;50.934;4.668;2022-09-09T08:11:32;6.00;;;2.87;;
21601;SDS011;10963;50.934;4.668;2022-09-09T08:14:03;11.33;;;3.00;;
21601;SDS011;10963;50.934;4.668;2022-09-09T08:16:31;9.10;;;2.33;;
21601;SDS011;10963;50.934;4.668;2022-09-09T08:18:58;14.07;;;3.20;;
21601;SDS011;10963;50.934;4.668;2022-09-09T08:21:26;5.60;;;2.27;;
21601;SDS011;10963;50.934;4.668;2022-09-09T08:23:53;10.10;;;2.43;;
21601;SDS011;10963;50.934;4.668;2022-09-09T08:26:21;11.43;;;2.33;;
21601;SDS011;10963;50.934;4.668;2022-09-09T08:28:49;7.83;;;2.80;;
21601;SDS011;10963;50.934;4.668;2022-09-09T08:31:19;5.90;;;2.10;;
21601;SDS011;10963;50.934;4.668;2022-09-09T08:33:49;6.43;;;1.90;;
21601;SDS011;10963;50.934;4.668;2022-09-09T08:36:20;7.63;;;1.70;;
21601;SDS011;10963;50.934;4.668;2022-09-09T08:38:50;7.83;;;1.77;;
21601;SDS011;10963;50.934;4.668;2022-09-09T08:44:02;10.73;;;1.90;;
21601;SDS011;10963;50.934;4.668;2022-09-09T08:52:01;6.47;;;1.93;;
21601;SDS011;10963;50.934;4.668;2022-09-09T08:54:35;8.23;;;2.40;;
21601;SDS011;10963;50.934;4.668;2022-09-09T08:57:02;6.67;;;1.70;;
21601;SDS011;10963;50.934;4.668;2022-09-09T08:59:33;8.33;;;2.13;;
21601;SDS011;10963;50.934;4.668;2022-09-09T09:02:26;8.60;;;2.10;;
21601;SDS011;10963;50.934;4.668;2022-09-09T09:10:50;8.30;;;2.27;;
21601;SDS011;10963;50.934;4.668;2022-09-09T09:15:52;7.20;;;2.00;;
21601;SDS011;10963;50.934;4.668;2022-09-09T09:18:23;7.30;;;2.47;;
21601;SDS011;10963;50.934;4.668;2022-09-09T09:21:00;6.27;;;1.80;;
21601;SDS011;10963;50.934;4.668;2022-09-09T09:23:45;7.43;;;2.13;;
21601;SDS011;10963;50.934;4.668;2022-09-09T09:26:19;6.90;;;1.97;;
21601;SDS011;10963;50.934;4.668;2022-09-09T09:28:49;8.30;;;2.40;;
21601;SDS011;10963;50.934;4.668;2022-09-09T09:31:20;7.97;;;1.97;;
21601;SDS011;10963;50.934;4.668;2022-09-09T09:33:54;6.87;;;2.00;;
21601;SDS011;10963;50.934;4.668;2022-09-09T09:36:46;10.70;;;2.40;;
21601;SDS011;10963;50.934;4.668;2022-09-09T09:39:25;6.67;;;2.30;;
21601;SDS011;10963;50.934;4.668;2022-09-09T09:41:55;6.73;;;1.87;;
21601;SDS011;10963;50.934;4.668;2022-09-09T09:44:29;5.40;;;2.00;;
21601;SDS011;10963;50.934;4.668;2022-09-09T09:47:10;8.97;;;2.50;;
21601;SDS011;10963;50.934;4.668;2022-09-09T09:49:55;6.07;;;1.67;;
21601;SDS011;10963;50.934;4.668;2022-09-09T09:52:28;4.40;;;2.00;;
21601;SDS011;10963;50.934;4.668;2022-09-09T09:54:59;7.47;;;1.97;;
21601;SDS011;10963;50.934;4.668;2022-09-09T09:57:29;8.73;;;1.90;;
21601;SDS011;10963;50.934;4.668;2022-09-09T10:00:18;8.63;;;2.10;;
21601;SDS011;10963;50.934;4.668;2022-09-09T10:02:46;5.93;;;2.13;;
21601;SDS011;10963;50.934;4.668;2022-09-09T10:07:42;5.47;;;1.87;;
21601;SDS011;10963;50.934;4.668;2022-09-09T10:10:26;4.27;;;1.97;;
21601;SDS011;10963;50.934;4.668;2022-09-09T10:27:16;6.23;;;2.33;;
21601;SDS011;10963;50.934;4.668;2022-09-09T10:32:27;8.27;;;2.57;;
21601;SDS011;10963;50.934;4.668;2022-09-09T10:38:19;6.87;;;2.20;;
21601;SDS011;10963;50.934;4.668;2022-09-09T10:41:09;5.53;;;2.27;;
21601;SDS011;10963;50.934;4.668;2022-09-09T10:49:23;6.53;;;2.27;;
21601;SDS011;10963;50.934;4.668;2022-09-09T10:55:06;8.93;;;2.00;;
21601;SDS011;10963;50.934;4.668;2022-09-09T10:57:41;9.80;;;2.43;;
21601;SDS011;10963;50.934;4.668;2022-09-09T11:00:23;5.47;;;1.90;;
21601;SDS011;10963;50.934;4.668;2022-09-09T11:02:56;5.47;;;2.33;;
21601;SDS011;10963;50.934;4.668;2022-09-09T11:08:06;6.60;;;2.00;;
21601;SDS011;10963;50.934;4.668;2022-09-09T11:10:40;6.10;;;1.97;;
21601;SDS011;10963;50.934;4.668;2022-09-09T11:13:14;6.03;;;2.27;;
21601;SDS011;10963;50.934;4.668;2022-09-09T11:15:52;6.47;;;2.03;;
21601;SDS011;10963;50.934;4.668;2022-09-09T11:18:22;5.97;;;2.30;;
21601;SDS011;10963;50.934;4.668;2022-09-09T11:20:58;5.07;;;2.10;;
21601;SDS011;10963;50.934;4.668;2022-09-09T11:23:42;8.70;;;2.20;;
21601;SDS011;10963;50.934;4.668;2022-09-09T11:26:21;16.43;;;2.70;;
21601;SDS011;10963;50.934;4.668;2022-09-09T11:34:33;4.63;;;2.13;;
21601;SDS011;10963;50.934;4.668;2022-09-09T11:40:16;5.07;;;1.87;;
21601;SDS011;10963;50.934;4.668;2022-09-09T11:42:45;6.97;;;1.60;;
21601;SDS011;10963;50.934;4.668;2022-09-09T11:45:24;4.63;;;1.70;;
21601;SDS011;10963;50.934;4.668;2022-09-09T11:47:58;8.63;;;2.00;;
21601;SDS011;10963;50.934;4.668;2022-09-09T11:50:31;5.90;;;1.87;;
21601;SDS011;10963;50.934;4.668;2022-09-09T11:55:59;7.37;;;2.00;;
21601;SDS011;10963;50.934;4.668;2022-09-09T11:58:39;7.27;;;1.80;;
21601;SDS011;10963;50.934;4.668;2022-09-09T12:01:30;3.80;;;2.20;;
21601;SDS011;10963;50.934;4.668;2022-09-09T12:06:46;4.33;;;2.13;;
21601;SDS011;10963;50.934;4.668;2022-09-09T12:09:30;4.87;;;1.80;;
21601;SDS011;10963;50.934;4.668;2022-09-09T12:17:46;6.43;;;1.60;;
21601;SDS011;10963;50.934;4.668;2022-09-09T12:20:17;4.33;;;1.70;;
21601;SDS011;10963;50.934;4.668;2022-09-09T12:31:18;4.63;;;1.50;;
21601;SDS011;10963;50.934;4.668;2022-09-09T12:34:02;2.60;;;1.70;;
21601;SDS011;10963;50.934;4.668;2022-09-09T12:36:57;5.93;;;1.73;;
21601;SDS011;10963;50.934;4.668;2022-09-09T12:40:02;3.50;;;1.67;;
21601;SDS011;10963;50.934;4.668;2022-09-09T12:42:24;3.27;;;1.40;;
21601;SDS011;10963;50.934;4.668;2022-09-09T12:44:55;4.27;;;1.60;;
21601;SDS011;10963;50.934;4.668;2022-09-09T12:47:46;5.30;;;2.30;;
21601;SDS011;10963;50.934;4.668;2022-09-09T12:50:29;7.30;;;2.13;;
21601;SDS011;10963;50.934;4.668;2022-09-09T12:52:58;6.57;;;1.70;;
21601;SDS011;10963;50.934;4.668;2022-09-09T12:55:32;5.40;;;1.90;;
21601;SDS011;10963;50.934;4.668;2022-09-09T12:58:01;4.07;;;1.67;;
21601;SDS011;10963;50.934;4.668;2022-09-09T13:00:31;4.63;;;1.70;;
21601;SDS011;10963;50.934;4.668;2022-09-09T13:02:59;3.40;;;1.60;;
21601;SDS011;10963;50.934;4.668;2022-09-09T13:05:36;3.63;;;1.90;;
21601;SDS011;10963;50.934;4.668;2022-09-09T13:08:10;5.80;;;1.83;;
21601;SDS011;10963;50.934;4.668;2022-09-09T13:10:39;6.57;;;1.80;;
21601;SDS011;10963;50.934;4.668;2022-09-09T13:13:26;4.50;;;1.80;;
21601;SDS011;10963;50.934;4.668;2022-09-09T13:16:00;6.30;;;1.70;;
21601;SDS011;10963;50.934;4.668;2022-09-09T13:18:30;5.00;;;1.40;;
21601;SDS011;10963;50.934;4.668;2022-09-09T13:20:58;2.77;;;1.40;;
21601;SDS011;10963;50.934;4.668;2022-09-09T13:23:32;6.30;;;1.30;;
21601;SDS011;10963;50.934;4.668;2022-09-09T13:26:18;1.83;;;1.20;;
21601;SDS011;10963;50.934;4.668;2022-09-09T13:28:50;2.30;;;1.20;;
21601;SDS011;10963;50.934;4.668;2022-09-09T13:31:21;4.63;;;1.27;;
21601;SDS011;10963;50.934;4.668;2022-09-09T13:33:54;5.10;;;1.50;;
21601;SDS011;10963;50.934;4.668;2022-09-09T13:36:31;3.30;;;1.40;;
21601;SDS011;10963;50.934;4.668;2022-09-09T13:39:00;6.63;;;1.30;;
21601;SDS011;10963;50.934;4.668;2022-09-09T13:41:35;6.40;;;1.30;;
21601;SDS011;10963;50.934;4.668;2022-09-09T13:44:14;4.60;;;1.60;;
21601;SDS011;10963;50.934;4.668;2022-09-09T13:46:45;2.70;;;1.30;;
21601;SDS011;10963;50.934;4.668;2022-09-09T13:51:45;2.70;;;1.37;;
21601;SDS011;10963;50.934;4.668;2022-09-09T13:54:16;3.37;;;1.60;;
21601;SDS011;10963;50.934;4.668;2022-09-09T13:56:44;4.43;;;1.60;;
21601;SDS011;10963;50.934;4.668;2022-09-09T13:59:14;3.17;;;1.37;;
21601;SDS011;10963;50.934;4.668;2022-09-09T14:01:41;3.77;;;1.50;;
21601;SDS011;10963;50.934;4.668;2022-09-09T14:04:09;3.73;;;1.10;;
21601;SDS011;10963;50.934;4.668;2022-09-09T14:06:35;4.70;;;1.37;;
21601;SDS011;10963;50.934;4.668;2022-09-09T14:09:07;3.83;;;1.20;;
21601;SDS011;10963;50.934;4.668;2022-09-09T14:11:35;5.80;;;1.53;;
21601;SDS011;10963;50.934;4.668;2022-09-09T14:14:06;2.03;;;1.30;;
21601;SDS011;10963;50.934;4.668;2022-09-09T14:16:32;3.17;;;1.30;;
21601;SDS011;10963;50.934;4.668;2022-09-09T14:19:00;2.20;;;1.20;;
21601;SDS011;10963;50.934;4.668;2022-09-09T14:21:27;5.93;;;1.57;;
21601;SDS011;10963;50.934;4.668;2022-09-09T14:23:53;1.97;;;1.27;;
21601;SDS011;10963;50.934;4.668;2022-09-09T14:26:23;4.17;;;1.40;;
21601;SDS011;10963;50.934;4.668;2022-09-09T14:28:53;5.20;;;1.37;;
21601;SDS011;10963;50.934;4.668;2022-09-09T14:31:19;2.70;;;1.20;;
21601;SDS011;10963;50.934;4.668;2022-09-09T14:33:46;2.53;;;1.03;;
21601;SDS011;10963;50.934;4.668;2022-09-09T14:36:14;3.87;;;1.50;;
21601;SDS011;10963;50.934;4.668;2022-09-09T14:38:40;2.77;;;1.10;;
21601;SDS011;10963;50.934;4.668;2022-09-09T14:41:11;3.77;;;1.40;;
21601;SDS011;10963;50.934;4.668;2022-09-09T14:43:39;3.57;;;1.60;;
21601;SDS011;10963;50.934;4.668;2022-09-09T14:46:09;3.20;;;1.30;;
21601;SDS011;10963;50.934;4.668;2022-09-09T14:48:37;3.77;;;1.50;;
21601;SDS011;10963;50.934;4.668;2022-09-09T14:51:08;4.00;;;1.40;;
21601;SDS011;10963;50.934;4.668;2022-09-09T14:53:36;4.77;;;1.70;;
21601;SDS011;10963;50.934;4.668;2022-09-09T14:56:03;4.07;;;1.60;;
21601;SDS011;10963;50.934;4.668;2022-09-09T14:58:36;3.10;;;1.70;;
21601;SDS011;10963;50.934;4.668;2022-09-09T15:01:06;3.80;;;1.50;;
21601;SDS011;10963;50.934;4.668;2022-09-09T15:03:38;8.57;;;1.50;;
21601;SDS011;10963;50.934;4.668;2022-09-09T15:06:11;4.13;;;1.40;;
21601;SDS011;10963;50.934;4.668;2022-09-09T15:08:43;3.10;;;1.50;;
21601;SDS011;10963;50.934;4.668;2022-09-09T15:11:13;3.43;;;1.70;;
21601;SDS011;10963;50.934;4.668;2022-09-09T15:13:42;6.40;;;1.70;;
21601;SDS011;10963;50.934;4.668;2022-09-09T15:16:16;5.40;;;1.63;;
21601;SDS011;10963;50.934;4.668;2022-09-09T15:18:46;5.83;;;1.77;;
21601;SDS011;10963;50.934;4.668;2022-09-09T15:21:22;2.43;;;1.20;;
21601;SDS011;10963;50.934;4.668;2022-09-09T15:23:51;3.83;;;1.70;;
21601;SDS011;10963;50.934;4.668;2022-09-09T15:26:17;3.30;;;1.33;;
21601;SDS011;10963;50.934;4.668;2022-09-09T15:28:47;6.40;;;1.40;;
21601;SDS011;10963;50.934;4.668;2022-09-09T15:31:21;3.23;;;1.60;;
21601;SDS011;10963;50.934;4.668;2022-09-09T15:33:54;3.80;;;1.80;;
21601;SDS011;10963;50.934;4.668;2022-09-09T15:36:27;3.20;;;1.50;;
21601;SDS011;10963;50.934;4.668;2022-09-09T15:38:55;4.57;;;1.30;;
21601;SDS011;10963;50.934;4.668;2022-09-09T15:41:24;3.57;;;1.20;;
21601;SDS011;10963;50.934;4.668;2022-09-09T15:43:52;3.17;;;1.63;;
21601;SDS011;10963;50.934;4.668;2022-09-09T15:51:54;5.23;;;1.43;;
21601;SDS011;10963;50.934;4.668;2022-09-09T15:54:25;2.70;;;1.60;;
21601;SDS011;10963;50.934;4.668;2022-09-09T15:56:53;4.40;;;1.60;;
21601;SDS011;10963;50.934;4.668;2022-09-09T15:59:24;4.47;;;1.50;;
21601;SDS011;10963;50.934;4.668;2022-09-09T16:01:52;2.87;;;1.30;;
21601;SDS011;10963;50.934;4.668;2022-09-09T16:04:19;5.73;;;1.60;;
21601;SDS011;10963;50.934;4.668;2022-09-09T16:06:54;7.17;;;1.57;;
21601;SDS011;10963;50.934;4.668;2022-09-09T16:09:29;1.30;;;1.10;;
21601;SDS011;10963;50.934;4.668;2022-09-09T16:11:56;2.77;;;1.63;;
21601;SDS011;10963;50.934;4.668;2022-09-09T16:14:23;5.93;;;1.60;;
21601;SDS011;10963;50.934;4.668;2022-09-09T16:16:50;5.10;;;1.67;;
21601;SDS011;10963;50.934;4.668;2022-09-09T16:19:16;5.33;;;1.30;;
21601;SDS011;10963;50.934;4.668;2022-09-09T16:21:43;3.27;;;1.40;;
21601;SDS011;10963;50.934;4.668;2022-09-09T16:24:14;5.07;;;1.53;;
21601;SDS011;10963;50.934;4.668;2022-09-09T16:26:43;3.93;;;1.47;;
21601;SDS011;10963;50.934;4.668;2022-09-09T16:29:10;5.17;;;1.33;;
21601;SDS011;10963;50.934;4.668;2022-09-09T16:31:37;3.37;;;1.40;;
21601;SDS011;10963;50.934;4.668;2022-09-09T16:34:04;4.67;;;1.70;;
21601;SDS011;10963;50.934;4.668;2022-09-09T16:36:31;1.97;;;1.57;;
21601;SDS011;10963;50.934;4.668;2022-09-09T16:39:00;4.90;;;1.63;;
21601;SDS011;10963;50.934;4.668;2022-09-09T16:41:28;4.90;;;1.70;;
21601;SDS011;10963;50.934;4.668;2022-09-09T16:43:58;3.83;;;1.80;;
21601;SDS011;10963;50.934;4.668;2022-09-09T16:46:30;3.60;;;1.63;;
21601;SDS011;10963;50.934;4.668;2022-09-09T16:48:57;5.90;;;1.63;;
21601;SDS011;10963;50.934;4.668;2022-09-09T16:51:28;3.33;;;1.60;;
21601;SDS011;10963;50.934;4.668;2022-09-09T16:53:59;2.90;;;1.67;;
21601;SDS011;10963;50.934;4.668;2022-09-09T16:56:28;3.63;;;1.90;;
21601;SDS011;10963;50.934;4.668;2022-09-09T16:58:57;3.47;;;1.77;;
21601;SDS011;10963;50.934;4.668;2022-09-09T17:01:28;3.63;;;1.63;;
21601;SDS011;10963;50.934;4.668;2022-09-09T17:03:57;3.33;;;1.67;;
21601;SDS011;10963;50.934;4.668;2022-09-09T17:06:26;4.13;;;1.60;;
21601;SDS011;10963;50.934;4.668;2022-09-09T17:08:55;4.77;;;1.70;;
21601;SDS011;10963;50.934;4.668;2022-09-09T17:11:22;5.00;;;1.43;;
21601;SDS011;10963;50.934;4.668;2022-09-09T17:13:48;3.10;;;1.50;;
21601;SDS011;10963;50.934;4.668;2022-09-09T17:16:15;5.37;;;1.87;;
21601;SDS011;10963;50.934;4.668;2022-09-09T17:18:42;7.77;;;1.90;;
21601;SDS011;10963;50.934;4.668;2022-09-09T17:21:09;3.47;;;1.70;;
21601;SDS011;10963;50.934;4.668;2022-09-09T17:23:39;6.03;;;1.70;;
21601;SDS011;10963;50.934;4.668;2022-09-09T17:26:06;4.80;;;1.83;;
21601;SDS011;10963;50.934;4.668;2022-09-09T17:28:35;3.07;;;1.50;;
21601;SDS011;10963;50.934;4.668;2022-09-09T17:31:03;3.33;;;1.60;;
21601;SDS011;10963;50.934;4.668;2022-09-09T17:33:32;2.87;;;1.63;;